Time;durP1;ratioP1;P1;durP2;ratioP2;P2;SDS_P1;SDS_P2;PMS_P1;PMS_P2;Temp;Humidity;BMP_temperature;BMP_pressure;BME280_temperature;BME280_humidity;BME280_pressure;Samples;Min_cycle;Max_cycle;Signal;HPM_P1;HPM_P2
2022/04/14 00:00:13;;;;;;;2.22;0.30;;;28.80;94.80;;;;;;4943403;28;20054;-74
2022/04/14 00:02:40;;;;;;;1.85;0.10;;;27.80;96.10;;;;;;4945077;28;20069;-73
2022/04/14 00:05:08;;;;;;;0.85;0.22;;;28.30;96.20;;;;;;4944778;28;20032;-71
2022/04/14 00:07:36;;;;;;;1.02;0.20;;;28.70;95.40;;;;;;4942680;28;20035;-74
2022/04/14 00:10:05;;;;;;;1.70;0.30;;;29.10;95.70;;;;;;4945586;28;20494;-72
2022/04/14 00:12:33;;;;;;;1.38;0.20;;;29.50;94.60;;;;;;4940315;28;20035;-74
2022/04/14 00:15:01;;;;;;;1.08;0.20;;;29.50;94.40;;;;;;4945086;28;20497;-72
2022/04/14 00:17:29;;;;;;;1.98;0.30;;;28.70;94.80;;;;;;4942356;28;20075;-73
2022/04/14 00:19:56;;;;;;;1.35;0.10;;;27.60;95.70;;;;;;4941820;28;20039;-73
2022/04/14 00:22:23;;;;;;;1.50;0.40;;;26.60;97.00;;;;;;4940518;28;20057;-74
2022/04/14 00:24:51;;;;;;;0.30;0.20;;;25.70;97.80;;;;;;4947035;28;20497;-74
2022/04/14 00:27:19;;;;;;;0.75;0.13;;;25.30;98.40;;;;;;4940860;28;20043;-72
2022/04/14 00:29:49;;;;;;;2.35;0.20;;;25.90;97.90;;;;;;4939420;28;20058;-74
2022/04/14 00:32:17;;;;;;;0.68;0.20;;;26.00;97.70;;;;;;4948510;28;20036;-73
2022/04/14 00:34:44;;;;;;;0.50;0.20;;;25.70;98.20;;;;;;4948188;28;20123;-74
2022/04/14 00:37:13;;;;;;;1.75;0.20;;;25.50;98.60;;;;;;4940876;28;20058;-73
2022/04/14 00:39:41;;;;;;;1.98;0.25;;;25.60;98.60;;;;;;4940818;28;20482;-73
2022/04/14 00:42:12;;;;;;;0.40;0.22;;;26.00;98.00;;;;;;4942830;28;20117;-73
2022/04/14 00:44:40;;;;;;;1.95;0.25;;;25.70;97.50;;;;;;4941769;28;20028;-73
2022/04/14 00:47:10;;;;;;;2.75;0.30;;;25.60;98.50;;;;;;4938190;28;20900;-73
2022/04/14 00:49:37;;;;;;;0.70;0.20;;;26.40;97.20;;;;;;4941572;28;20039;-73
2022/04/14 00:52:05;;;;;;;0.65;0.17;;;27.50;96.80;;;;;;4943218;28;20097;-74
2022/04/14 00:54:33;;;;;;;1.08;0.50;;;27.60;95.40;;;;;;4954798;28;20058;-73
2022/04/14 00:57:03;;;;;;;1.30;0.20;;;27.30;95.40;;;;;;4955203;28;20036;-73
2022/04/14 00:59:34;;;;;;;0.43;0.20;;;27.10;95.80;;;;;;4944892;28;20364;-73
2022/04/14 01:02:02;;;;;;;1.90;0.20;;;26.60;97.10;;;;;;4940685;28;20114;-74
2022/04/14 01:04:29;;;;;;;2.15;0.65;;;26.50;97.40;;;;;;4945652;28;20043;-72
2022/04/14 01:06:57;;;;;;;2.40;0.35;;;26.50;96.90;;;;;;4945536;28;20023;-73
2022/04/14 01:09:28;;;;;;;0.10;0.10;;;26.10;97.70;;;;;;4939799;28;20034;-74
2022/04/14 01:11:57;;;;;;;0.38;0.10;;;26.00;97.80;;;;;;4941468;28;20027;-73
2022/04/14 01:14:29;;;;;;;0.70;0.10;;;25.60;97.70;;;;;;4948437;28;20111;-73
2022/04/14 01:16:59;;;;;;;1.90;0.20;;;25.30;98.00;;;;;;4936894;28;20041;-73
2022/04/14 01:19:27;;;;;;;1.17;0.30;;;25.00;97.60;;;;;;4944918;28;20201;-73
2022/04/14 01:22:19;;;;;;;0.80;0.30;;;24.90;97.90;;;;;;4943745;28;20054;-74
2022/04/14 01:24:47;;;;;;;2.05;0.63;;;24.70;97.70;;;;;;4944332;28;20110;-74
2022/04/14 01:27:14;;;;;;;0.93;0.10;;;24.40;99.00;;;;;;4943660;28;20136;-73
2022/04/14 01:29:41;;;;;;;2.47;0.38;;;24.90;98.70;;;;;;4937463;28;20502;-73
2022/04/14 01:32:10;;;;;;;0.70;0.40;;;24.90;98.70;;;;;;4944942;28;20027;-77
2022/04/14 01:34:38;;;;;;;1.25;0.20;;;24.70;98.60;;;;;;4942235;28;20073;-73
2022/04/14 01:37:05;;;;;;;1.60;0.73;;;24.70;98.30;;;;;;4939116;28;20102;-76
2022/04/14 01:39:32;;;;;;;0.90;0.50;;;24.50;98.10;;;;;;4940751;28;20501;-74
2022/04/14 01:42:00;;;;;;;1.85;0.50;;;24.40;98.10;;;;;;4937533;28;20046;-75
2022/04/14 01:44:27;;;;;;;1.08;0.52;;;24.30;98.10;;;;;;4942620;28;20027;-75
2022/04/14 01:46:54;;;;;;;0.82;0.25;;;24.20;98.30;;;;;;4938597;28;20514;-73
2022/04/14 01:49:22;;;;;;;1.10;0.20;;;24.10;97.60;;;;;;4948530;28;20043;-74
2022/04/14 01:51:49;;;;;;;2.15;0.20;;;24.10;97.50;;;;;;4945106;28;20054;-79
2022/04/14 01:54:17;;;;;;;3.15;0.20;;;24.20;97.50;;;;;;4938099;28;20031;-74
2022/04/14 01:56:46;;;;;;;3.28;0.20;;;24.90;97.30;;;;;;4942710;28;20066;-76
2022/04/14 01:59:13;;;;;;;1.35;0.30;;;25.50;97.00;;;;;;4950733;28;20074;-79
2022/04/14 02:01:41;;;;;;;1.55;0.20;;;26.00;96.00;;;;;;4946700;28;20094;-77
2022/04/14 02:04:08;;;;;;;0.38;0.10;;;25.90;96.10;;;;;;4950233;28;20058;-75
2022/04/14 02:06:35;;;;;;;0.55;0.30;;;25.70;95.60;;;;;;4948197;28;20031;-74
2022/04/14 02:09:06;;;;;;;1.33;0.20;;;25.20;95.90;;;;;;4940528;28;20051;-75
2022/04/14 02:11:33;;;;;;;0.60;0.13;;;24.60;96.10;;;;;;4948896;28;20389;-73
2022/04/14 02:14:01;;;;;;;1.27;0.30;;;24.20;97.20;;;;;;4945034;28;20027;-75
2022/04/14 02:16:28;;;;;;;0.57;0.30;;;23.80;97.70;;;;;;4945398;28;20050;-74
2022/04/14 02:18:55;;;;;;;2.67;0.47;;;23.70;98.40;;;;;;4938360;28;20157;-75
2022/04/14 02:21:23;;;;;;;2.55;0.38;;;23.60;99.10;;;;;;4949774;28;20043;-74
2022/04/14 02:23:50;;;;;;;0.50;0.20;;;23.60;99.00;;;;;;4944941;28;20028;-74
2022/04/14 02:26:17;;;;;;;1.13;0.15;;;23.40;98.70;;;;;;4950999;28;20046;-75
2022/04/14 02:28:45;;;;;;;2.33;0.32;;;23.30;98.50;;;;;;4942363;28;20047;-73
2022/04/14 02:31:13;;;;;;;0.70;0.20;;;23.10;98.70;;;;;;4941564;28;20044;-74
2022/04/14 02:33:41;;;;;;;2.35;0.30;;;23.20;99.00;;;;;;4946205;28;20434;-75
2022/04/14 02:36:08;;;;;;;2.75;0.20;;;23.20;98.90;;;;;;4951557;29;20068;-75
2022/04/14 02:38:35;;;;;;;2.28;0.20;;;23.20;98.90;;;;;;4939457;28;20035;-74
2022/04/14 02:41:03;;;;;;;4.07;0.52;;;23.30;99.10;;;;;;4953016;28;20486;-74
2022/04/14 02:43:30;;;;;;;1.27;0.25;;;23.40;98.80;;;;;;4949341;28;20073;-74
2022/04/14 02:45:59;;;;;;;1.65;0.22;;;23.60;98.60;;;;;;4942832;28;20023;-74
2022/04/14 02:48:27;;;;;;;1.58;0.40;;;23.70;98.40;;;;;;4951581;28;20497;-73
2022/04/14 02:50:54;;;;;;;0.77;0.30;;;23.60;98.30;;;;;;4948159;28;20413;-74
2022/04/14 02:53:21;;;;;;;0.47;0.13;;;23.50;98.90;;;;;;4942442;28;20403;-73
2022/04/14 02:55:49;;;;;;;0.50;0.20;;;23.60;99.00;;;;;;4945707;28;20381;-73
2022/04/14 02:58:16;;;;;;;4.57;1.10;;;23.80;98.70;;;;;;4941144;28;20047;-73
2022/04/14 03:00:44;;;;;;;4.43;0.30;;;24.00;98.90;;;;;;4943676;28;20027;-73
2022/04/14 03:03:11;;;;;;;1.30;0.30;;;24.10;98.60;;;;;;4941409;28;20055;-73
2022/04/14 03:05:38;;;;;;;2.75;0.68;;;24.00;98.20;;;;;;4942328;28;20027;-73
2022/04/14 03:08:06;;;;;;;1.17;0.22;;;23.90;98.70;;;;;;4946049;28;20074;-74
2022/04/14 03:10:33;;;;;;;0.75;0.52;;;23.90;98.60;;;;;;4951239;28;20046;-74
2022/04/14 03:13:01;;;;;;;0.30;0.10;;;24.50;98.40;;;;;;4942804;28;20035;-74
2022/04/14 03:15:28;;;;;;;2.97;0.20;;;25.50;97.10;;;;;;4956989;28;20046;-75
2022/04/14 03:17:56;;;;;;;1.33;0.28;;;26.10;96.10;;;;;;4948148;28;20077;-76
2022/04/14 03:20:23;;;;;;;2.33;0.20;;;26.70;95.40;;;;;;4943670;28;20036;-72
2022/04/14 03:22:50;;;;;;;0.75;0.13;;;27.00;94.90;;;;;;4942077;28;20152;-75
2022/04/14 03:25:18;;;;;;;1.80;0.30;;;27.30;94.60;;;;;;4940907;28;20493;-74
2022/04/14 03:27:45;;;;;;;0.80;0.17;;;27.40;94.50;;;;;;4940865;28;20039;-74
2022/04/14 03:30:12;;;;;;;1.38;0.15;;;27.40;94.10;;;;;;4946828;28;20070;-74
2022/04/14 03:32:44;;;;;;;0.73;0.20;;;27.60;94.40;;;;;;4944678;28;20036;-75
2022/04/14 03:35:12;;;;;;;1.60;0.20;;;27.80;93.80;;;;;;4944158;28;20102;-73
2022/04/14 03:37:40;;;;;;;1.85;0.55;;;27.70;93.50;;;;;;4947782;28;20053;-74
2022/04/14 03:40:08;;;;;;;2.85;0.40;;;27.60;93.40;;;;;;4944671;28;20035;-73
2022/04/14 03:42:36;;;;;;;1.13;0.20;;;27.40;92.80;;;;;;4948648;28;20031;-72
2022/04/14 03:45:05;;;;;;;1.23;0.98;;;26.70;93.40;;;;;;4939254;28;20654;-73
2022/04/14 03:47:42;;;;;;;0.30;0.15;;;26.50;93.80;;;;;;4947709;28;20106;-74
2022/04/14 03:50:09;;;;;;;1.55;0.32;;;26.60;94.10;;;;;;4931985;28;20792;-72
2022/04/14 03:52:37;;;;;;;1.52;0.50;;;26.50;93.90;;;;;;4950010;28;20714;-75
2022/04/14 03:55:05;;;;;;;0.82;0.57;;;26.50;94.40;;;;;;4943706;28;20150;-74
2022/04/14 03:57:32;;;;;;;1.80;0.77;;;26.20;95.20;;;;;;4951061;28;20031;-73
2022/04/14 04:00:00;;;;;;;1.67;0.20;;;25.70;95.00;;;;;;4939955;28;20031;-74
2022/04/14 04:02:27;;;;;;;0.40;0.15;;;25.30;94.40;;;;;;4943575;28;20026;-74
2022/04/14 04:04:54;;;;;;;0.43;0.10;;;25.70;95.00;;;;;;4949168;28;20030;-74
2022/04/14 04:07:22;;;;;;;2.88;0.50;;;26.50;94.90;;;;;;4947648;28;20082;-73
2022/04/14 04:09:50;;;;;;;1.50;0.20;;;26.50;93.90;;;;;;4937371;28;20031;-73
2022/04/14 04:12:19;;;;;;;0.73;0.10;;;27.00;94.00;;;;;;4940853;28;20033;-76
2022/04/14 04:14:48;;;;;;;1.35;0.85;;;27.20;94.30;;;;;;4943407;28;20060;-74
2022/04/14 04:17:16;;;;;;;2.35;0.20;;;27.30;93.50;;;;;;4937442;28;20494;-75
2022/04/14 04:19:44;;;;;;;2.65;0.40;;;27.20;93.60;;;;;;4934741;28;20035;-74
2022/04/14 04:22:11;;;;;;;1.10;0.28;;;26.70;94.50;;;;;;4941389;28;20028;-73
2022/04/14 04:24:39;;;;;;;2.08;0.30;;;25.90;95.60;;;;;;4947841;28;20028;-77
2022/04/14 04:27:06;;;;;;;2.88;0.20;;;25.30;96.20;;;;;;4938978;28;20433;-74
2022/04/14 04:29:34;;;;;;;0.80;0.20;;;24.90;96.50;;;;;;4944540;28;20043;-72
2022/04/14 04:32:02;;;;;;;3.47;0.35;;;24.60;96.80;;;;;;4961337;28;20031;-73
2022/04/14 04:34:29;;;;;;;1.42;0.63;;;24.40;97.00;;;;;;4961289;28;20107;-73
2022/04/14 04:36:56;;;;;;;0.43;0.10;;;24.20;97.30;;;;;;4970544;28;20062;-74
2022/04/14 04:39:24;;;;;;;0.63;0.20;;;24.20;97.40;;;;;;4946217;28;20042;-73
2022/04/14 04:41:51;;;;;;;2.83;0.10;;;24.10;97.50;;;;;;4940106;28;20028;-75
2022/04/14 04:44:18;;;;;;;2.53;0.25;;;24.00;97.60;;;;;;4942543;28;20122;-72
2022/04/14 04:46:46;;;;;;;4.25;0.32;;;23.90;97.70;;;;;;4955724;28;20066;-72
2022/04/14 04:49:13;;;;;;;0.77;0.40;;;23.90;97.90;;;;;;4946033;28;20035;-71
2022/04/14 04:51:41;;;;;;;2.22;0.47;;;23.90;97.90;;;;;;4948692;28;20071;-75
2022/04/14 04:54:08;;;;;;;1.50;0.20;;;23.70;98.00;;;;;;4950363;28;20063;-74
2022/04/14 04:56:35;;;;;;;3.53;0.32;;;23.50;98.00;;;;;;4944010;28;20046;-73
2022/04/14 04:59:03;;;;;;;1.73;0.40;;;23.40;98.50;;;;;;4947406;28;20031;-73
2022/04/14 05:01:31;;;;;;;0.85;0.22;;;23.50;98.50;;;;;;4944292;28;20110;-74
2022/04/14 05:03:58;;;;;;;2.42;0.20;;;23.60;98.40;;;;;;4941857;28;20066;-74
2022/04/14 05:06:25;;;;;;;1.75;0.20;;;23.70;98.20;;;;;;4945793;28;20094;-74
2022/04/14 05:08:53;;;;;;;2.38;0.40;;;23.80;98.20;;;;;;4949686;28;20031;-73
2022/04/14 05:11:21;;;;;;;0.20;0.10;;;23.80;98.10;;;;;;4938078;28;20062;-74
2022/04/14 05:13:48;;;;;;;7.15;0.65;;;23.90;98.00;;;;;;4944974;28;20027;-73
2022/04/14 05:16:15;;;;;;;1.38;0.10;;;24.10;97.90;;;;;;4944284;28;20057;-73
2022/04/14 05:18:43;;;;;;;0.77;0.50;;;24.40;97.40;;;;;;4944037;28;20505;-73
2022/04/14 05:21:10;;;;;;;2.08;0.20;;;24.70;96.90;;;;;;4946016;28;20482;-72
2022/04/14 05:23:37;;;;;;;3.13;0.20;;;24.90;96.60;;;;;;4943798;28;20031;-73
2022/04/14 05:26:05;;;;;;;0.93;0.22;;;25.00;96.00;;;;;;4941748;28;20041;-73
2022/04/14 05:28:32;;;;;;;0.20;0.10;;;25.00;96.20;;;;;;4938731;28;20031;-72
2022/04/14 05:31:00;;;;;;;1.63;0.10;;;24.90;96.00;;;;;;4939115;28;20043;-73
2022/04/14 05:33:27;;;;;;;0.30;0.10;;;24.70;96.20;;;;;;4938021;28;20038;-73
2022/04/14 05:35:55;;;;;;;3.72;0.20;;;24.50;96.60;;;;;;4937926;28;21437;-73
2022/04/14 05:38:24;;;;;;;3.83;0.20;;;24.20;97.00;;;;;;4935333;28;20105;-73
2022/04/14 05:40:52;;;;;;;3.08;0.20;;;24.10;97.20;;;;;;4938783;28;20436;-73
2022/04/14 05:43:26;;;;;;;0.38;0.10;;;24.00;97.20;;;;;;4937833;28;20043;-74
2022/04/14 05:45:54;;;;;;;3.20;0.20;;;23.80;97.20;;;;;;4940420;28;20039;-72
2022/04/14 05:48:22;;;;;;;1.13;0.20;;;23.70;97.40;;;;;;4935642;28;20038;-72
2022/04/14 05:50:50;;;;;;;2.42;0.10;;;23.70;97.60;;;;;;4939157;28;20043;-73
2022/04/14 05:53:28;;;;;;;0.30;0.10;;;23.50;97.60;;;;;;4939929;28;20157;-74
2022/04/14 05:55:55;;;;;;;0.95;0.30;;;23.50;97.80;;;;;;4940617;28;20035;-72
2022/04/14 05:58:23;;;;;;;8.13;0.75;;;23.50;97.70;;;;;;4937748;28;20027;-73
2022/04/14 06:00:50;;;;;;;1.67;0.20;;;23.70;97.60;;;;;;4940720;28;20039;-74
2022/04/14 06:03:18;;;;;;;1.30;0.10;;;23.90;97.10;;;;;;4944524;28;20035;-71
2022/04/14 06:05:45;;;;;;;1.05;0.20;;;24.20;96.60;;;;;;4944851;28;20067;-72
2022/04/14 06:08:15;;;;;;;0.88;0.10;;;24.40;96.60;;;;;;4949222;28;20053;-73
2022/04/14 06:10:43;;;;;;;0.68;0.10;;;24.50;96.60;;;;;;4940293;28;20082;-73
2022/04/14 06:13:13;;;;;;;0.85;0.10;;;24.60;96.60;;;;;;4942939;28;20035;-73
2022/04/14 06:15:41;;;;;;;0.68;0.05;;;24.50;96.40;;;;;;4944594;28;20037;-71
2022/04/14 06:18:08;;;;;;;0.50;0.05;;;24.30;96.70;;;;;;4942104;28;20070;-73
2022/04/14 06:20:36;;;;;;;1.40;0.00;;;23.90;96.80;;;;;;4943403;28;20023;-72
2022/04/14 06:23:03;;;;;;;1.00;0.10;;;23.70;97.20;;;;;;4946956;28;20047;-74
2022/04/14 06:25:31;;;;;;;1.52;0.03;;;23.60;97.00;;;;;;4950336;28;20101;-73
2022/04/14 06:27:58;;;;;;;3.25;0.20;;;23.40;97.20;;;;;;4944194;28;20032;-75
2022/04/14 06:30:26;;;;;;;2.78;0.20;;;23.30;97.30;;;;;;4951040;28;20498;-73
2022/04/14 06:33:02;;;;;;;0.57;0.20;;;23.20;97.40;;;;;;4942145;28;20027;-74
2022/04/14 06:35:30;;;;;;;1.67;0.10;;;23.10;97.90;;;;;;4943416;28;20490;-73
2022/04/14 06:37:58;;;;;;;4.07;0.30;;;23.10;97.80;;;;;;4944673;28;20053;-72
2022/04/14 06:40:26;;;;;;;1.73;0.20;;;23.20;97.90;;;;;;4940192;28;20036;-73
2022/04/14 06:42:53;;;;;;;2.28;0.22;;;23.20;98.00;;;;;;4940877;28;20033;-71
2022/04/14 06:45:21;;;;;;;2.83;0.20;;;23.30;98.00;;;;;;4944366;28;20046;-72
2022/04/14 06:47:49;;;;;;;1.88;0.10;;;23.20;98.10;;;;;;4943736;28;20112;-72
2022/04/14 06:50:16;;;;;;;0.82;0.20;;;23.20;98.20;;;;;;4943125;28;20043;-74
2022/04/14 06:52:44;;;;;;;1.30;0.13;;;23.10;98.30;;;;;;4943158;28;20028;-71
2022/04/14 06:55:11;;;;;;;1.92;0.20;;;23.10;98.10;;;;;;4943351;28;20455;-72
2022/04/14 06:57:38;;;;;;;2.50;0.20;;;23.10;98.10;;;;;;4941750;28;20792;-72
2022/04/14 07:00:06;;;;;;;0.10;0.00;;;23.00;98.20;;;;;;4932398;28;20635;-74
2022/04/14 07:02:35;;;;;;;0.32;0.13;;;22.90;98.20;;;;;;4939017;28;20050;-73
2022/04/14 07:05:06;;;;;;;1.30;0.20;;;22.80;98.50;;;;;;4938770;28;20043;-73
2022/04/14 07:07:33;;;;;;;1.45;0.20;;;22.70;98.60;;;;;;4941429;28;20074;-73
2022/04/14 07:10:00;;;;;;;2.85;0.20;;;22.60;98.70;;;;;;4948019;28;20401;-74
2022/04/14 07:12:28;;;;;;;0.55;0.15;;;22.60;98.80;;;;;;4945253;28;20054;-75
2022/04/14 07:14:55;;;;;;;0.40;0.10;;;22.60;98.80;;;;;;4945949;28;20431;-75
2022/04/14 07:17:23;;;;;;;0.98;0.10;;;22.60;99.00;;;;;;4946241;28;20019;-74
2022/04/14 07:19:50;;;;;;;0.52;0.10;;;22.50;99.10;;;;;;4948101;28;20064;-74
2022/04/14 07:22:19;;;;;;;0.88;0.10;;;22.30;99.20;;;;;;4945066;28;20054;-75
2022/04/14 07:24:50;;;;;;;0.52;0.13;;;22.30;99.40;;;;;;4945033;28;20040;-75
2022/04/14 07:27:20;;;;;;;0.98;0.10;;;22.20;99.60;;;;;;4939976;28;20449;-75
2022/04/14 07:29:48;;;;;;;1.08;0.20;;;22.00;99.80;;;;;;4954542;28;20044;-75
2022/04/14 07:32:16;;;;;;;1.38;0.20;;;21.90;99.90;;;;;;4948550;28;20031;-75
2022/04/14 07:34:43;;;;;;;1.60;0.30;;;21.80;99.90;;;;;;4946310;28;20023;-74
2022/04/14 07:37:11;;;;;;;1.63;0.60;;;21.70;99.90;;;;;;4943488;28;20122;-75
2022/04/14 07:39:38;;;;;;;2.38;0.10;;;21.60;99.90;;;;;;4947578;28;20034;-72
2022/04/14 07:42:06;;;;;;;0.75;0.30;;;21.60;99.90;;;;;;4943423;28;20106;-75
2022/04/14 07:44:33;;;;;;;3.42;0.57;;;21.60;99.90;;;;;;4947010;28;20039;-76
2022/04/14 07:47:02;;;;;;;1.27;1.13;;;21.60;99.90;;;;;;4944512;29;20039;-74
2022/04/14 07:49:29;;;;;;;2.58;0.30;;;21.50;99.90;;;;;;4949603;28;20069;-73
2022/04/14 07:51:58;;;;;;;4.68;0.40;;;21.40;99.90;;;;;;4942570;28;20043;-74
2022/04/14 07:54:25;;;;;;;4.32;0.38;;;21.30;99.90;;;;;;4945985;28;20043;-74
2022/04/14 07:56:53;;;;;;;3.83;0.68;;;21.30;99.90;;;;;;4946901;28;20058;-75
2022/04/14 07:59:20;;;;;;;2.63;0.35;;;21.20;99.90;;;;;;4944410;28;20751;-75
2022/04/14 08:01:49;;;;;;;2.80;0.50;;;21.10;99.90;;;;;;4941233;28;20065;-75
2022/04/14 08:04:16;;;;;;;3.10;0.77;;;21.00;99.90;;;;;;4954502;28;20032;-74
2022/04/14 08:06:43;;;;;;;4.57;0.50;;;20.90;99.90;;;;;;4948565;29;20051;-75
2022/04/14 08:09:11;;;;;;;4.05;0.20;;;20.80;99.90;;;;;;4946430;28;20051;-74
2022/04/14 08:11:38;;;;;;;4.60;0.68;;;20.80;99.90;;;;;;4936469;28;20605;-74
2022/04/14 08:14:05;;;;;;;2.15;0.95;;;20.80;99.90;;;;;;4940949;28;20040;-73
2022/04/14 08:16:33;;;;;;;3.63;0.40;;;20.70;99.90;;;;;;4942297;28;20031;-75
2022/04/14 08:19:00;;;;;;;4.13;0.82;;;20.70;99.90;;;;;;4947015;28;20984;-76
2022/04/14 08:21:27;;;;;;;9.15;1.15;;;20.60;99.90;;;;;;4944513;28;20042;-75
2022/04/14 08:23:55;;;;;;;3.17;0.95;;;20.60;99.90;;;;;;4944750;28;20035;-74
2022/04/14 08:26:22;;;;;;;3.17;0.30;;;20.50;99.90;;;;;;4946505;28;20220;-74
2022/04/14 08:28:50;;;;;;;0.82;0.35;;;20.50;99.90;;;;;;4954532;28;20465;-74
2022/04/14 08:31:18;;;;;;;8.45;0.98;;;20.50;99.90;;;;;;4966415;29;20090;-72
2022/04/14 08:33:45;;;;;;;5.68;1.02;;;20.50;99.90;;;;;;4955949;28;20043;-72
2022/04/14 08:36:15;;;;;;;4.18;0.63;;;20.50;99.90;;;;;;4946536;29;20110;-75
2022/04/14 08:38:45;;;;;;;6.20;0.30;;;20.60;99.90;;;;;;4952377;29;20036;-74
2022/04/14 08:41:14;;;;;;;2.72;0.25;;;20.60;99.90;;;;;;4948617;28;20489;-74
2022/04/14 08:44:06;;;;;;;1.88;0.38;;;20.80;99.90;;;;;;4946107;28;20028;-73
2022/04/14 08:46:43;;;;;;;2.90;0.20;;;20.70;99.90;;;;;;5071354;27;20435;-71
2022/04/14 08:49:10;;;;;;;1.63;0.20;;;20.70;99.90;;;;;;5062883;28;20152;-73
2022/04/14 08:51:42;;;;;;;2.40;0.73;;;20.70;99.90;;;;;;5051395;28;20031;-73
2022/04/14 08:54:13;;;;;;;1.60;0.25;;;20.50;99.90;;;;;;5049517;28;20108;-73
2022/04/14 08:56:41;;;;;;;0.77;0.40;;;20.40;99.90;;;;;;5049270;28;20163;-73
2022/04/14 08:59:10;;;;;;;1.65;0.45;;;20.20;99.90;;;;;;5047258;28;20118;-72
2022/04/14 09:01:38;;;;;;;1.98;0.30;;;20.10;99.90;;;;;;5049953;28;20028;-73
2022/04/14 09:04:08;;;;;;;0.52;0.20;;;20.00;99.90;;;;;;5051065;28;20029;-72
2022/04/14 09:06:36;;;;;;;2.53;0.40;;;19.90;99.90;;;;;;5049415;28;20040;-72
2022/04/14 09:09:03;;;;;;;0.93;0.28;;;19.90;99.90;;;;;;5050668;28;20025;-73
2022/04/14 09:11:31;;;;;;;0.98;0.50;;;19.80;99.90;;;;;;5049954;28;20043;-73
2022/04/14 09:14:00;;;;;;;1.27;0.40;;;19.80;99.90;;;;;;5053028;28;20090;-73
2022/04/14 09:16:30;;;;;;;1.55;0.88;;;19.80;99.90;;;;;;5049939;28;20060;-73
2022/04/14 09:19:01;;;;;;;7.07;1.15;;;19.90;99.90;;;;;;5050602;28;20035;-73
2022/04/14 09:21:28;;;;;;;2.63;0.52;;;19.80;99.90;;;;;;5047774;28;20025;-74
2022/04/14 09:23:57;;;;;;;1.15;0.63;;;19.80;99.90;;;;;;5049136;28;20033;-73
2022/04/14 09:26:25;;;;;;;7.00;1.10;;;19.70;99.90;;;;;;5047888;28;20037;-72
2022/04/14 09:29:07;;;;;;;3.42;0.55;;;19.70;99.90;;;;;;5042727;28;20039;-72
2022/04/14 09:31:54;;;;;;;1.95;0.50;;;19.50;99.90;;;;;;5046398;28;20102;-73
2022/04/14 09:34:48;;;;;;;2.40;0.50;;;19.50;99.90;;;;;;5045567;28;20025;-73
2022/04/14 09:37:16;;;;;;;5.43;1.65;;;19.30;99.90;;;;;;5055907;28;20059;-74
2022/04/14 09:39:57;;;;;;;14.02;1.13;;;19.20;99.90;;;;;;5050716;28;20025;-75
2022/04/14 09:42:26;;;;;;;4.45;0.50;;;19.10;99.90;;;;;;5046774;28;20376;-73
2022/04/14 09:44:54;;;;;;;1.52;0.85;;;19.10;99.90;;;;;;5045790;28;20056;-73
2022/04/14 09:47:37;;;;;;;4.30;0.60;;;19.00;99.90;;;;;;5048730;28;20044;-74
2022/04/14 09:50:25;;;;;;;4.05;0.57;;;19.00;99.90;;;;;;5046107;28;20444;-73
2022/04/14 09:53:09;;;;;;;2.15;0.50;;;18.90;99.90;;;;;;5045640;28;20045;-72
2022/04/14 09:55:58;;;;;;;0.80;0.40;;;18.90;99.90;;;;;;5050739;28;20031;-73
2022/04/14 09:58:27;;;;;;;4.05;0.85;;;18.90;99.90;;;;;;5034033;28;20055;-73
2022/04/14 10:00:59;;;;;;;2.10;0.50;;;18.90;99.90;;;;;;5032422;28;20033;-75
2022/04/14 10:03:31;;;;;;;2.42;0.98;;;19.00;99.90;;;;;;5038076;28;20052;-73
2022/04/14 10:06:05;;;;;;;1.55;0.50;;;19.00;99.90;;;;;;5033128;28;20518;-73
2022/04/14 10:08:52;;;;;;;2.72;0.60;;;19.00;99.90;;;;;;5031877;28;20041;-72
2022/04/14 10:11:37;;;;;;;2.35;0.75;;;19.00;99.90;;;;;;5031344;28;20428;-71
2022/04/14 10:14:23;;;;;;;1.13;0.40;;;19.00;99.90;;;;;;5040297;28;20223;-71
2022/04/14 10:16:50;;;;;;;;;;;19.00;99.90;;;;;;5034538;28;20488;-73
2022/04/14 10:19:19;;;;;;;2.20;0.60;;;19.00;99.90;;;;;;5029639;28;19920;-73
2022/04/14 10:21:47;;;;;;;3.45;0.93;;;19.00;99.90;;;;;;5032338;28;20033;-73
2022/04/14 10:24:17;;;;;;;1.30;0.60;;;19.00;99.90;;;;;;5032327;28;20119;-73
2022/04/14 10:26:46;;;;;;;3.10;0.50;;;19.00;99.90;;;;;;5035243;28;20204;-73
2022/04/14 10:29:15;;;;;;;1.88;0.90;;;18.90;99.90;;;;;;5035535;28;20407;-72
2022/04/14 10:31:43;;;;;;;2.30;0.80;;;18.90;99.90;;;;;;5031994;28;20042;-73
2022/04/14 10:34:15;;;;;;;3.35;1.20;;;18.90;99.90;;;;;;5033275;28;20121;-72
2022/04/14 10:36:44;;;;;;;5.30;1.02;;;18.90;99.90;;;;;;5041044;28;20561;-73
2022/04/14 10:39:14;;;;;;;3.20;0.90;;;18.90;99.90;;;;;;5049505;28;20033;-73
2022/04/14 10:41:46;;;;;;;5.50;1.13;;;18.80;99.90;;;;;;5047225;28;20484;-74
2022/04/14 10:44:13;;;;;;;5.05;1.20;;;18.80;99.90;;;;;;5049371;28;20056;-72
2022/04/14 10:46:46;;;;;;;3.92;1.60;;;18.80;99.90;;;;;;5044697;28;20036;-72
2022/04/14 10:49:23;;;;;;;6.90;1.83;;;18.80;99.90;;;;;;5045687;28;20029;-74
2022/04/14 10:51:53;;;;;;;2.42;1.25;;;18.80;99.90;;;;;;5046879;28;20025;-73
2022/04/14 10:54:21;;;;;;;2.17;1.00;;;18.90;99.90;;;;;;5041247;28;20839;-72
2022/04/14 10:56:50;;;;;;;3.65;1.10;;;18.90;99.90;;;;;;5040912;28;20064;-70
2022/04/14 10:59:33;;;;;;;6.53;1.35;;;18.90;99.90;;;;;;5049456;28;20033;-72
2022/04/14 11:02:05;;;;;;;3.53;0.77;;;18.90;99.90;;;;;;5039895;28;20095;-71
2022/04/14 11:04:53;;;;;;;1.85;0.75;;;18.90;99.90;;;;;;5038212;28;20785;-72
2022/04/14 11:07:22;;;;;;;3.25;1.88;;;18.90;99.90;;;;;;5043673;28;20502;-71
2022/04/14 11:09:53;;;;;;;5.70;0.70;;;18.90;99.90;;;;;;5046648;28;20058;-72
2022/04/14 11:12:29;;;;;;;3.70;1.50;;;18.90;99.90;;;;;;5031962;28;20436;-71
2022/04/14 11:15:03;;;;;;;3.10;1.10;;;18.90;99.90;;;;;;5039467;28;20028;-71
2022/04/14 11:18:12;;;;;;;3.83;1.05;;;18.90;99.90;;;;;;5033653;28;20119;-72
2022/04/14 11:20:36;;;;;;;3.63;1.45;;;18.90;99.90;;;;;;5031661;28;20036;-72
2022/04/14 11:23:20;;;;;;;5.75;1.25;;;18.90;99.90;;;;;;5033595;28;20061;-73
2022/04/14 11:25:50;;;;;;;4.00;0.85;;;18.90;99.90;;;;;;5031600;28;20033;-72
2022/04/14 11:28:19;;;;;;;3.35;1.08;;;19.00;99.90;;;;;;5031269;28;20025;-70
2022/04/14 11:30:47;;;;;;;6.78;1.00;;;19.00;99.90;;;;;;5032743;28;20460;-72
2022/04/14 11:33:35;;;;;;;4.15;0.80;;;19.00;99.90;;;;;;5031692;28;20475;-71
2022/04/14 11:36:25;;;;;;;4.28;1.65;;;19.00;99.90;;;;;;5033211;28;20044;-71
2022/04/14 11:39:00;;;;;;;1.88;0.63;;;19.00;99.90;;;;;;5030454;28;20105;-73
2022/04/14 11:41:44;;;;;;;2.80;1.17;;;19.00;99.90;;;;;;5035012;28;20029;-72
2022/04/14 11:44:21;;;;;;;4.13;1.30;;;19.00;99.90;;;;;;5041743;28;20091;-76
2022/04/14 11:47:01;;;;;;;1.63;1.38;;;19.10;99.90;;;;;;5036772;28;20033;-74
2022/04/14 11:49:30;;;;;;;2.05;0.90;;;19.00;99.90;;;;;;5033266;28;20039;-75
2022/04/14 11:52:00;;;;;;;1.27;0.75;;;19.00;99.90;;;;;;5034535;28;20451;-76
2022/04/14 11:54:30;;;;;;;1.52;0.68;;;18.90;99.90;;;;;;5043261;28;20063;-78
2022/04/14 11:57:09;;;;;;;2.55;0.82;;;18.90;99.90;;;;;;5046726;28;20068;-77
2022/04/14 11:59:46;;;;;;;2.45;1.10;;;18.80;99.90;;;;;;5047486;28;20025;-80
2022/04/14 12:02:18;;;;;;;1.85;0.68;;;18.80;99.90;;;;;;5043179;28;20033;-77
2022/04/14 12:04:47;;;;;;;4.93;0.80;;;18.80;99.90;;;;;;5044376;28;20036;-77
2022/04/14 12:07:15;;;;;;;3.30;0.65;;;18.70;99.90;;;;;;5043796;28;20033;-79
2022/04/14 12:09:43;;;;;;;7.28;1.88;;;18.60;99.90;;;;;;5068474;28;20025;-75
2022/04/14 12:12:20;;;;;;;3.40;1.20;;;18.50;99.90;;;;;;5069318;28;20032;-77
2022/04/14 12:14:49;;;;;;;1.50;0.95;;;18.40;99.90;;;;;;5057742;28;20060;-77
2022/04/14 12:17:18;;;;;;;4.93;0.82;;;18.30;99.90;;;;;;5047520;28;20525;-75
2022/04/14 12:20:03;;;;;;;1.63;0.55;;;18.20;99.90;;;;;;5038172;28;20487;-78
2022/04/14 12:22:34;;;;;;;1.50;0.57;;;18.10;99.90;;;;;;5032447;28;20392;-77
2022/04/14 12:25:05;;;;;;;1.45;0.55;;;18.00;99.90;;;;;;5033294;28;20045;-77
2022/04/14 12:27:42;;;;;;;3.95;1.00;;;17.90;99.90;;;;;;5032352;28;20474;-77
2022/04/14 12:30:13;;;;;;;1.48;0.50;;;17.80;99.90;;;;;;5035881;28;20119;-76
2022/04/14 12:32:46;;;;;;;4.38;0.98;;;17.70;99.90;;;;;;5037065;28;20025;-75
2022/04/14 12:35:30;;;;;;;5.68;0.98;;;17.60;99.90;;;;;;5033135;28;20029;-78
2022/04/14 12:38:18;;;;;;;1.98;0.80;;;17.50;99.90;;;;;;5036142;28;20544;-77
2022/04/14 12:41:03;;;;;;;2.05;0.70;;;17.40;99.90;;;;;;5036864;28;20494;-79
2022/04/14 12:43:51;;;;;;;3.13;1.15;;;17.30;99.90;;;;;;5038827;28;20036;-78
2022/04/14 12:46:26;;;;;;;3.08;0.73;;;17.20;99.90;;;;;;5036904;28;20072;-79
2022/04/14 12:49:03;;;;;;;3.80;0.90;;;17.10;99.90;;;;;;5032217;28;20029;-77
2022/04/14 12:51:33;;;;;;;5.05;0.90;;;17.10;99.90;;;;;;5043102;28;20040;-80
2022/04/14 12:54:01;;;;;;;2.47;0.80;;;17.00;99.90;;;;;;5032758;28;20032;-76
2022/04/14 12:56:31;;;;;;;1.77;0.77;;;17.00;99.90;;;;;;5037280;28;20036;-77
2022/04/14 12:59:18;;;;;;;2.00;0.55;;;16.90;99.90;;;;;;5035833;28;20563;-76
2022/04/14 13:02:04;;;;;;;2.70;1.20;;;16.80;99.90;;;;;;5035183;28;20040;-77